Pocono Lake, Pennsylvania
Current Conditions -  °F | °C
As of 7:53 AM on Saturday 20 Dec 2014 (Local Time) from KMPO Reporting Station
Overcast Overcast  
Wind Chill: -8°   Ceiling: 1200
Heat Index: -4°   Visibility: 10mi
Dew Point: -7°   Wind: 6mph
Humidity: 81%   Direction: 340°NNW
Pressure: 30.15"   Gusts: NA
Location:  41.09°N, 75.58°W
Report Text: KMPO 201253Z AUTO 34005KT 10SM OVC012 M04/M07 A3015 RMK AO2 SLP240 T10441072
Loading
Personal Weather Stations






























Interactive Weather Map New forecast layout! Learn more

10-Day Weather Forecast

Advertisements
Track Severe Weather on mobile